Time;durP1;ratioP1;P1;durP2;ratioP2;P2;SDS_P1;SDS_P2;PMS_P1;PMS_P2;Temp;Humidity;BMP_temperature;BMP_pressure;BME280_temperature;BME280_humidity;BME280_pressure;Samples;Min_cycle;Max_cycle;Signal;HPM_P1;HPM_P2
2022/10/26 00:02:21;;;;;;;12.10;7.72;;;10.80;99.90;;;;;;5066411;28;20053;-67
2022/10/26 00:04:47;;;;;;;12.55;7.32;;;10.80;99.90;;;;;;5051009;28;20037;-67
2022/10/26 00:07:12;;;;;;;10.30;6.90;;;10.80;99.90;;;;;;5051138;28;20486;-67
2022/10/26 00:09:38;;;;;;;13.18;6.75;;;10.70;99.90;;;;;;5051349;28;20041;-66
2022/10/26 00:12:03;;;;;;;11.63;6.90;;;10.70;99.90;;;;;;5051308;28;20052;-66
2022/10/26 00:14:29;;;;;;;12.50;7.75;;;10.70;99.90;;;;;;5049381;28;20049;-66
2022/10/26 00:16:55;;;;;;;14.85;7.28;;;10.70;99.90;;;;;;5050841;28;20029;-67
2022/10/26 00:19:20;;;;;;;16.35;7.30;;;10.60;99.90;;;;;;5050834;28;20037;-67
2022/10/26 00:21:46;;;;;;;13.65;7.13;;;10.60;99.90;;;;;;5051201;28;20072;-66
2022/10/26 00:24:12;;;;;;;13.20;7.60;;;10.60;99.90;;;;;;5066010;28;20502;-66
2022/10/26 00:26:38;;;;;;;12.43;7.40;;;10.60;99.90;;;;;;5050726;28;20071;-66
2022/10/26 00:29:06;;;;;;;9.23;6.55;;;10.60;99.90;;;;;;5051025;28;20091;-66
2022/10/26 00:31:32;;;;;;;10.40;7.40;;;10.60;99.90;;;;;;5050909;28;20102;-66
2022/10/26 00:33:58;;;;;;;9.65;6.93;;;10.60;99.90;;;;;;5050851;28;20048;-67
2022/10/26 00:36:25;;;;;;;12.90;8.40;;;10.60;99.90;;;;;;5049328;28;20402;-66
2022/10/26 00:38:52;;;;;;;12.10;7.50;;;10.60;99.90;;;;;;5050674;28;20509;-67
2022/10/26 00:41:21;;;;;;;13.20;7.07;;;10.50;99.90;;;;;;5050601;28;20116;-66
2022/10/26 00:43:47;;;;;;;9.25;6.72;;;10.50;99.90;;;;;;5048871;28;20056;-67
2022/10/26 00:46:18;;;;;;;10.88;6.88;;;10.50;99.90;;;;;;5050592;28;20045;-66
2022/10/26 00:48:47;;;;;;;9.32;6.45;;;10.50;99.90;;;;;;5049642;28;20048;-66
2022/10/26 00:51:29;;;;;;;11.98;6.80;;;10.40;99.90;;;;;;5049145;28;20055;-67
2022/10/26 00:53:55;;;;;;;12.85;6.97;;;10.40;99.90;;;;;;5050392;28;20072;-66
2022/10/26 00:56:20;;;;;;;13.23;6.63;;;10.40;99.90;;;;;;5065670;28;20080;-66
2022/10/26 00:58:47;;;;;;;14.05;7.65;;;10.40;99.90;;;;;;5049270;28;20121;-67
2022/10/26 01:01:12;;;;;;;11.25;7.13;;;10.30;99.90;;;;;;5050863;28;20048;-66
2022/10/26 01:03:38;;;;;;;11.68;7.25;;;10.40;99.90;;;;;;5049085;28;20501;-66
2022/10/26 01:06:05;;;;;;;12.73;7.65;;;10.30;99.90;;;;;;5050390;28;20060;-66
2022/10/26 01:08:31;;;;;;;11.98;7.90;;;10.30;99.90;;;;;;5050261;28;20045;-66
2022/10/26 01:10:58;;;;;;;14.55;8.15;;;10.30;99.90;;;;;;5049156;28;20139;-66
2022/10/26 01:13:29;;;;;;;13.82;7.88;;;10.20;99.90;;;;;;5050489;28;20581;-67
2022/10/26 01:16:06;;;;;;;13.82;8.23;;;10.20;99.90;;;;;;5048814;28;20077;-66
2022/10/26 01:18:46;;;;;;;14.05;6.68;;;10.20;99.90;;;;;;5050066;28;20048;-66
2022/10/26 01:21:49;;;;;;;16.08;8.10;;;10.10;99.90;;;;;;5054485;28;20115;-66
2022/10/26 01:24:21;;;;;;;12.82;8.15;;;10.20;99.90;;;;;;5052336;28;20072;-66
2022/10/26 01:27:18;;;;;;;11.60;8.00;;;10.10;99.90;;;;;;5054364;28;20041;-66
2022/10/26 01:30:17;;;;;;;15.65;7.90;;;10.10;99.90;;;;;;5054181;28;20051;-67
2022/10/26 01:33:12;;;;;;;14.18;7.70;;;10.10;99.90;;;;;;5052679;28;20055;-67
2022/10/26 01:35:47;;;;;;;12.57;7.70;;;10.00;99.90;;;;;;5052445;28;20087;-67
2022/10/26 01:38:31;;;;;;;14.77;7.32;;;10.10;99.90;;;;;;5054039;28;20075;-66
2022/10/26 01:41:16;;;;;;;11.00;7.38;;;10.00;99.90;;;;;;5054185;28;20045;-66
2022/10/26 01:43:48;;;;;;;12.88;7.47;;;10.10;99.90;;;;;;5052247;28;20056;-67
2022/10/26 01:46:15;;;;;;;14.73;7.88;;;10.10;99.90;;;;;;5035939;28;20505;-66
2022/10/26 01:48:43;;;;;;;10.57;7.68;;;10.10;99.90;;;;;;5051825;28;20056;-67
2022/10/26 01:51:10;;;;;;;13.02;8.02;;;10.10;99.90;;;;;;5052371;28;20048;-66
2022/10/26 01:53:44;;;;;;;14.88;8.00;;;10.10;99.90;;;;;;5053324;28;20513;-66
2022/10/26 01:56:18;;;;;;;17.10;8.10;;;10.10;99.90;;;;;;5053930;28;20090;-67
2022/10/26 01:58:55;;;;;;;11.25;7.90;;;10.00;99.90;;;;;;5052191;28;20378;-66
2022/10/26 02:01:43;;;;;;;12.10;7.75;;;10.10;99.90;;;;;;5053696;28;20132;-66
2022/10/26 02:04:33;;;;;;;12.02;8.23;;;10.00;99.90;;;;;;5053166;28;20055;-67
2022/10/26 02:07:11;;;;;;;12.10;8.25;;;10.00;99.90;;;;;;5053374;28;20037;-66
2022/10/26 02:09:49;;;;;;;16.02;8.52;;;10.10;99.90;;;;;;5053307;28;20489;-66
2022/10/26 02:12:32;;;;;;;14.98;8.85;;;10.00;99.90;;;;;;5053450;28;20041;-66
2022/10/26 02:15:07;;;;;;;;;;;10.00;99.90;;;;;;5052275;28;20045;-67
2022/10/26 02:17:52;;;;;;;15.10;8.93;;;10.00;99.90;;;;;;5053191;28;19916;-67
2022/10/26 02:20:30;;;;;;;18.40;10.68;;;10.00;99.90;;;;;;5051819;28;20090;-67
2022/10/26 02:23:00;;;;;;;16.83;9.80;;;10.00;99.90;;;;;;5051883;28;20041;-67
2022/10/26 02:25:29;;;;;;;20.63;9.95;;;10.00;99.90;;;;;;5051178;28;20124;-66
2022/10/26 02:27:59;;;;;;;16.15;10.30;;;10.00;99.90;;;;;;5053280;28;20451;-66
2022/10/26 02:30:25;;;;;;;17.77;9.60;;;10.00;99.90;;;;;;5051864;28;20048;-66
2022/10/26 02:32:54;;;;;;;15.98;9.80;;;10.00;99.90;;;;;;5051722;28;20505;-66
2022/10/26 02:35:26;;;;;;;17.17;9.90;;;10.00;99.90;;;;;;5052551;28;20052;-66
2022/10/26 02:37:54;;;;;;;19.25;9.38;;;9.90;99.90;;;;;;5051481;28;20041;-67
2022/10/26 02:40:24;;;;;;;16.92;9.65;;;10.00;99.90;;;;;;5051262;28;20052;-66
2022/10/26 02:42:51;;;;;;;13.13;9.07;;;10.00;99.90;;;;;;5051470;28;20107;-66
2022/10/26 02:45:23;;;;;;;13.35;9.10;;;9.90;99.90;;;;;;5052550;28;20037;-67
2022/10/26 02:47:49;;;;;;;17.05;9.60;;;10.00;99.90;;;;;;5052572;28;20041;-67
2022/10/26 02:50:15;;;;;;;17.30;9.18;;;9.90;99.90;;;;;;5051248;28;20520;-66
2022/10/26 02:53:34;;;;;;;20.85;9.57;;;9.90;99.90;;;;;;5051143;28;20045;-66
2022/10/26 02:56:10;;;;;;;16.48;9.90;;;9.90;99.90;;;;;;5010219;28;20485;-66
2022/10/26 02:58:40;;;;;;;15.85;9.98;;;9.90;99.90;;;;;;5050324;28;20053;-66
2022/10/26 03:01:07;;;;;;;15.05;8.77;;;9.90;99.90;;;;;;5051277;28;20049;-66
2022/10/26 03:03:32;;;;;;;17.30;9.73;;;9.80;99.90;;;;;;5052327;28;20137;-66
2022/10/26 03:05:58;;;;;;;14.18;9.07;;;9.80;99.90;;;;;;5052219;28;20120;-66
2022/10/26 03:08:23;;;;;;;15.18;9.73;;;9.80;99.90;;;;;;5050825;28;20037;-67
2022/10/26 03:10:49;;;;;;;19.23;9.43;;;9.80;99.90;;;;;;5051155;28;20053;-66
2022/10/26 03:13:15;;;;;;;17.33;9.80;;;9.80;99.90;;;;;;5052334;28;20040;-67
2022/10/26 03:15:40;;;;;;;14.40;9.48;;;9.80;99.90;;;;;;5052094;28;20047;-66
2022/10/26 03:18:06;;;;;;;15.63;10.25;;;9.80;99.90;;;;;;5052101;28;20044;-67
2022/10/26 03:20:32;;;;;;;15.05;9.43;;;9.70;99.90;;;;;;5052036;28;20052;-66
2022/10/26 03:22:57;;;;;;;15.85;9.70;;;9.70;99.90;;;;;;5052087;28;20044;-66
2022/10/26 03:25:24;;;;;;;19.45;9.55;;;9.70;99.90;;;;;;5051991;28;20040;-66
2022/10/26 03:27:57;;;;;;;17.83;10.32;;;9.70;99.90;;;;;;5051763;28;20436;-66
2022/10/26 03:30:23;;;;;;;15.77;10.38;;;9.70;99.90;;;;;;5051896;28;20049;-66
2022/10/26 03:32:48;;;;;;;16.67;9.23;;;9.70;99.90;;;;;;5052017;28;20044;-66
2022/10/26 03:35:14;;;;;;;13.70;9.60;;;9.70;99.90;;;;;;5051436;28;20429;-66
2022/10/26 03:37:39;;;;;;;15.15;9.68;;;9.70;99.90;;;;;;5034024;28;20049;-66
2022/10/26 03:40:05;;;;;;;16.70;10.32;;;9.80;99.90;;;;;;5051567;28;20044;-66
2022/10/26 03:42:38;;;;;;;21.13;10.27;;;9.70;99.90;;;;;;5049723;28;20052;-67
2022/10/26 03:45:05;;;;;;;18.80;10.48;;;9.80;99.90;;;;;;5051554;28;20404;-67
2022/10/26 03:47:30;;;;;;;16.13;10.48;;;9.80;99.90;;;;;;5050075;28;20560;-67
2022/10/26 03:49:56;;;;;;;16.58;10.02;;;9.80;99.90;;;;;;5051412;28;20036;-66
2022/10/26 03:52:23;;;;;;;18.55;9.77;;;9.80;99.90;;;;;;5051574;28;20060;-67
2022/10/26 03:54:48;;;;;;;17.75;9.57;;;9.80;99.90;;;;;;5051386;28;20044;-66
2022/10/26 03:57:14;;;;;;;20.25;9.90;;;9.80;99.90;;;;;;5051311;28;20033;-66
2022/10/26 03:59:40;;;;;;;15.80;9.63;;;9.90;99.90;;;;;;5049966;28;20044;-66
2022/10/26 04:02:05;;;;;;;16.33;9.90;;;9.80;99.90;;;;;;5051681;28;20119;-66
2022/10/26 04:04:31;;;;;;;18.60;9.85;;;9.80;99.90;;;;;;5049873;28;20083;-66
2022/10/26 04:06:56;;;;;;;14.95;9.30;;;9.80;99.90;;;;;;5051228;28;20042;-66
2022/10/26 04:09:22;;;;;;;16.58;8.88;;;9.70;99.90;;;;;;5051381;28;20033;-66
2022/10/26 04:11:48;;;;;;;17.02;9.25;;;9.80;99.90;;;;;;5051439;28;20076;-66
2022/10/26 04:14:13;;;;;;;15.85;9.93;;;9.80;99.90;;;;;;5051072;28;20041;-66
2022/10/26 04:16:39;;;;;;;16.95;8.88;;;9.80;99.90;;;;;;5050915;28;20047;-66
2022/10/26 04:19:04;;;;;;;16.27;8.75;;;9.80;99.90;;;;;;5051379;28;20041;-66
2022/10/26 04:21:31;;;;;;;20.92;10.63;;;9.80;99.90;;;;;;5050805;28;20040;-66
2022/10/26 04:23:57;;;;;;;13.65;8.68;;;9.80;99.90;;;;;;5049409;28;20405;-66
2022/10/26 04:26:23;;;;;;;18.73;9.82;;;9.80;99.90;;;;;;5050778;28;20049;-67
2022/10/26 04:28:49;;;;;;;18.77;10.13;;;9.80;99.90;;;;;;5050955;28;20044;-67
2022/10/26 04:31:14;;;;;;;18.70;9.65;;;9.90;99.90;;;;;;5050839;28;20405;-66
2022/10/26 04:33:40;;;;;;;15.63;9.68;;;9.80;99.90;;;;;;5051071;28;20112;-66
2022/10/26 04:36:06;;;;;;;17.65;10.57;;;9.80;99.90;;;;;;5050495;28;20045;-66
2022/10/26 04:38:31;;;;;;;20.52;10.07;;;9.80;99.90;;;;;;5050702;28;20049;-66
2022/10/26 04:40:57;;;;;;;16.58;10.07;;;9.90;99.90;;;;;;5050932;28;20044;-67
2022/10/26 04:43:22;;;;;;;17.10;10.63;;;9.80;99.90;;;;;;5050961;28;20501;-66
2022/10/26 04:45:48;;;;;;;19.90;10.57;;;9.90;99.90;;;;;;5050410;28;20033;-66
2022/10/26 04:48:14;;;;;;;15.60;10.05;;;9.90;99.90;;;;;;5050941;28;20090;-66
2022/10/26 04:50:40;;;;;;;19.67;10.38;;;9.90;99.90;;;;;;5050700;28;20037;-66
2022/10/26 04:53:09;;;;;;;15.75;10.20;;;9.90;99.90;;;;;;5050600;28;20575;-66
2022/10/26 04:55:35;;;;;;;18.20;10.07;;;10.00;99.90;;;;;;5053975;28;20041;-66
2022/10/26 04:58:01;;;;;;;16.70;10.27;;;10.00;99.90;;;;;;5054594;28;20248;-67
2022/10/26 05:00:27;;;;;;;16.45;9.90;;;9.90;99.90;;;;;;5054765;28;20041;-66
2022/10/26 05:02:58;;;;;;;18.05;9.90;;;9.90;99.90;;;;;;5054560;28;20503;-66
2022/10/26 05:05:23;;;;;;;15.27;9.50;;;10.00;99.90;;;;;;5054588;28;20087;-66
2022/10/26 05:07:54;;;;;;;22.52;10.82;;;10.00;99.90;;;;;;5054581;28;20068;-66
2022/10/26 05:10:20;;;;;;;16.63;9.38;;;10.00;99.90;;;;;;5053291;28;20037;-66
2022/10/26 05:12:50;;;;;;;16.23;10.35;;;10.00;99.90;;;;;;5054512;28;20409;-67
2022/10/26 05:15:16;;;;;;;18.45;10.27;;;10.00;99.90;;;;;;5054536;28;20067;-66
2022/10/26 05:17:41;;;;;;;15.90;9.45;;;10.10;99.90;;;;;;5054274;28;20493;-66
2022/10/26 05:20:11;;;;;;;15.43;9.60;;;10.10;99.90;;;;;;5054663;28;20040;-66
2022/10/26 05:22:37;;;;;;;15.18;9.15;;;10.10;99.90;;;;;;5054164;28;20049;-67
2022/10/26 05:25:03;;;;;;;18.63;9.68;;;10.10;99.90;;;;;;5053713;28;20045;-67
2022/10/26 05:27:28;;;;;;;17.92;9.60;;;10.20;99.90;;;;;;5052852;28;20044;-67
2022/10/26 05:29:54;;;;;;;16.20;9.93;;;10.20;99.90;;;;;;5054219;28;20037;-66
2022/10/26 05:32:19;;;;;;;17.17;10.30;;;10.20;99.90;;;;;;5054354;28;20120;-66
2022/10/26 05:34:45;;;;;;;13.82;8.82;;;10.20;99.90;;;;;;5053720;28;20124;-67
2022/10/26 05:37:11;;;;;;;14.07;9.48;;;10.20;99.90;;;;;;5054069;28;20045;-67
2022/10/26 05:39:36;;;;;;;14.63;8.70;;;10.30;99.90;;;;;;5054040;28;20098;-66
2022/10/26 05:42:02;;;;;;;17.23;9.13;;;10.30;99.90;;;;;;5052673;28;20045;-66
2022/10/26 05:44:27;;;;;;;14.43;8.57;;;10.30;99.90;;;;;;5053376;28;20539;-67
2022/10/26 05:46:53;;;;;;;14.52;9.43;;;10.30;99.90;;;;;;5053827;28;20080;-67
2022/10/26 05:49:18;;;;;;;17.70;8.32;;;10.30;99.90;;;;;;5054082;28;20041;-67
2022/10/26 05:51:44;;;;;;;14.73;8.82;;;10.30;99.90;;;;;;5053919;28;20580;-67
2022/10/26 05:54:09;;;;;;;17.00;9.48;;;10.40;99.90;;;;;;5053628;28;20124;-67
2022/10/26 05:56:40;;;;;;;15.88;9.02;;;10.30;99.90;;;;;;5053788;28;20111;-67
2022/10/26 05:59:14;;;;;;;17.80;8.43;;;10.30;99.90;;;;;;5053650;28;20048;-67
2022/10/26 06:02:17;;;;;;;14.13;8.45;;;10.30;99.90;;;;;;5054008;28;20044;-67
2022/10/26 06:04:46;;;;;;;16.80;9.73;;;10.40;99.90;;;;;;5051565;28;20492;-66
2022/10/26 06:07:14;;;;;;;20.77;8.85;;;10.40;99.90;;;;;;5053500;28;20714;-66
2022/10/26 06:09:41;;;;;;;15.85;8.90;;;10.40;99.90;;;;;;5053769;28;20428;-66
2022/10/26 06:12:08;;;;;;;14.27;8.15;;;10.40;99.90;;;;;;5052335;28;20413;-66
2022/10/26 06:14:34;;;;;;;11.82;8.05;;;10.40;99.90;;;;;;5053175;28;20122;-67
2022/10/26 06:17:12;;;;;;;19.70;9.60;;;10.40;99.90;;;;;;5053310;28;20067;-67
2022/10/26 06:20:14;;;;;;;14.55;8.27;;;10.40;99.90;;;;;;5053194;28;20493;-66
2022/10/26 06:23:23;;;;;;;14.98;7.82;;;10.40;99.90;;;;;;5050802;28;20102;-66
2022/10/26 06:26:00;;;;;;;14.88;8.38;;;10.40;99.90;;;;;;5049487;28;20403;-67
2022/10/26 06:29:00;;;;;;;14.27;8.38;;;10.40;99.90;;;;;;5053382;28;20037;-67
2022/10/26 06:31:26;;;;;;;15.35;8.27;;;10.50;99.90;;;;;;5052391;28;20041;-67
2022/10/26 06:33:57;;;;;;;14.00;7.43;;;10.50;99.90;;;;;;5052159;28;20084;-66
2022/10/26 06:36:26;;;;;;;13.05;7.70;;;10.40;99.90;;;;;;5053002;28;20089;-67
2022/10/26 06:39:03;;;;;;;13.93;7.38;;;10.50;99.90;;;;;;5051549;28;20040;-67
2022/10/26 06:41:31;;;;;;;14.27;7.88;;;10.50;99.90;;;;;;5051374;28;20542;-67
2022/10/26 06:43:57;;;;;;;12.55;7.75;;;10.40;99.90;;;;;;5051314;28;20049;-66
2022/10/26 06:46:37;;;;;;;12.45;6.93;;;10.50;99.90;;;;;;5052493;28;20037;-67
2022/10/26 06:49:26;;;;;;;11.63;7.10;;;10.50;99.90;;;;;;5052761;28;20041;-67
2022/10/26 06:51:58;;;;;;;14.88;7.15;;;10.50;99.90;;;;;;5052403;28;20044;-67
2022/10/26 06:54:48;;;;;;;11.75;7.30;;;10.50;99.90;;;;;;5050886;28;20056;-67
2022/10/26 06:57:15;;;;;;;12.35;7.15;;;10.50;99.90;;;;;;5051217;28;20049;-66
2022/10/26 06:59:51;;;;;;;12.77;8.32;;;10.50;99.90;;;;;;5052446;28;20083;-66
2022/10/26 07:02:17;;;;;;;15.55;7.40;;;10.50;99.90;;;;;;5052779;28;20033;-70
2022/10/26 07:04:44;;;;;;;11.13;7.25;;;10.50;99.90;;;;;;5051058;28;20041;-67
2022/10/26 07:07:18;;;;;;;13.23;6.57;;;10.50;99.90;;;;;;5051060;28;20043;-67
2022/10/26 07:09:44;;;;;;;12.25;6.90;;;10.50;99.90;;;;;;5052471;28;20040;-70
2022/10/26 07:12:09;;;;;;;14.65;6.85;;;10.50;99.90;;;;;;5051041;28;20066;-70
2022/10/26 07:14:35;;;;;;;12.75;7.30;;;10.60;99.90;;;;;;5051020;28;20623;-70
2022/10/26 07:17:01;;;;;;;12.07;6.93;;;10.50;99.90;;;;;;5050091;28;20095;-69
2022/10/26 07:19:26;;;;;;;13.73;6.57;;;10.60;99.90;;;;;;5051009;28;20449;-69
2022/10/26 07:21:58;;;;;;;11.77;7.40;;;10.60;99.90;;;;;;5050667;28;20383;-69
2022/10/26 07:24:23;;;;;;;16.30;7.15;;;10.60;99.90;;;;;;5051733;28;20049;-69
2022/10/26 07:26:49;;;;;;;13.93;7.18;;;10.70;99.90;;;;;;5051860;28;20436;-69
2022/10/26 07:29:17;;;;;;;10.65;6.28;;;10.70;99.90;;;;;;5050749;28;20033;-70
2022/10/26 07:31:43;;;;;;;13.95;6.97;;;10.80;99.90;;;;;;5051772;28;20039;-70
2022/10/26 07:34:09;;;;;;;8.27;5.85;;;10.80;99.90;;;;;;5050384;28;20045;-68
2022/10/26 07:36:38;;;;;;;10.95;7.30;;;11.00;99.90;;;;;;5051792;28;20045;-69
2022/10/26 07:39:04;;;;;;;11.90;6.85;;;11.40;99.90;;;;;;5052019;28;20456;-69
2022/10/26 07:41:30;;;;;;;11.05;7.03;;;11.20;99.90;;;;;;5051998;28;20037;-68
2022/10/26 07:43:55;;;;;;;9.52;6.63;;;11.20;99.90;;;;;;5051151;28;20536;-68
2022/10/26 07:46:21;;;;;;;10.10;5.93;;;11.20;99.90;;;;;;5051869;28;20111;-68
2022/10/26 07:48:46;;;;;;;12.52;6.18;;;11.20;99.90;;;;;;5051344;28;20048;-69
2022/10/26 07:51:12;;;;;;;11.60;6.68;;;11.30;99.90;;;;;;5050648;28;20037;-68
2022/10/26 07:53:37;;;;;;;11.65;7.10;;;11.30;99.90;;;;;;5051467;28;20482;-68
2022/10/26 07:56:03;;;;;;;13.27;6.07;;;11.30;99.90;;;;;;5050005;28;20053;-68
2022/10/26 07:58:29;;;;;;;12.15;5.97;;;11.30;99.90;;;;;;5051379;28;20041;-68
2022/10/26 08:00:55;;;;;;;8.45;5.75;;;11.40;99.90;;;;;;5033476;28;20072;-68
2022/10/26 08:03:21;;;;;;;13.02;6.93;;;11.40;99.90;;;;;;5050046;28;20048;-68
2022/10/26 08:05:54;;;;;;;8.63;6.35;;;11.40;99.90;;;;;;5051170;28;20049;-68
2022/10/26 08:08:20;;;;;;;15.15;6.35;;;11.50;99.90;;;;;;5049532;28;20033;-68
2022/10/26 08:10:46;;;;;;;15.68;7.07;;;11.50;99.90;;;;;;5049548;28;20116;-68
2022/10/26 08:13:12;;;;;;;8.40;5.70;;;11.60;99.90;;;;;;5049607;28;20032;-68
2022/10/26 08:15:38;;;;;;;10.93;6.07;;;11.70;99.90;;;;;;5049014;28;20056;-69
2022/10/26 08:18:04;;;;;;;9.35;6.03;;;11.70;99.90;;;;;;5050896;28;20386;-68
2022/10/26 08:20:30;;;;;;;15.23;6.28;;;11.70;99.90;;;;;;5050634;28;20036;-68
2022/10/26 08:22:56;;;;;;;8.50;5.95;;;11.80;99.90;;;;;;5050761;28;20045;-68
2022/10/26 08:25:22;;;;;;;8.98;6.05;;;11.80;99.90;;;;;;5049565;28;20045;-67
2022/10/26 08:27:48;;;;;;;11.30;6.22;;;12.10;99.90;;;;;;5051127;28;20029;-69
2022/10/26 08:30:14;;;;;;;8.68;5.65;;;12.10;99.90;;;;;;5049621;28;20123;-70
2022/10/26 08:32:41;;;;;;;10.63;6.32;;;12.20;99.90;;;;;;5050959;28;20128;-70
2022/10/26 08:35:07;;;;;;;10.45;6.18;;;12.20;99.90;;;;;;5050370;28;20397;-70
2022/10/26 08:37:33;;;;;;;14.75;6.45;;;12.30;99.90;;;;;;5049714;28;20076;-70
2022/10/26 08:39:59;;;;;;;15.20;6.15;;;12.30;99.90;;;;;;5049517;28;20052;-70
2022/10/26 08:42:32;;;;;;;10.48;5.90;;;12.40;99.90;;;;;;5050662;28;20048;-70
2022/10/26 08:45:11;;;;;;;10.75;6.15;;;12.40;99.90;;;;;;5050802;28;20163;-70
2022/10/26 08:47:42;;;;;;;11.68;5.60;;;12.40;99.90;;;;;;5049357;28;20036;-70
2022/10/26 08:50:24;;;;;;;9.05;6.00;;;12.50;99.90;;;;;;5050744;28;20067;-70
2022/10/26 08:53:03;;;;;;;8.18;5.82;;;12.60;99.90;;;;;;5049476;28;20067;-70
2022/10/26 08:55:38;;;;;;;9.95;6.05;;;12.60;99.90;;;;;;5049220;28;20040;-70
2022/10/26 08:58:11;;;;;;;10.57;5.43;;;12.70;99.90;;;;;;5049550;28;20053;-70
2022/10/26 09:00:38;;;;;;;16.75;6.30;;;12.70;99.90;;;;;;5049516;28;20041;-70
2022/10/26 09:03:13;;;;;;;7.68;5.68;;;12.80;99.90;;;;;;5049237;28;20453;-70
2022/10/26 09:06:02;;;;;;;14.43;5.93;;;12.80;99.90;;;;;;5049397;28;20401;-70
2022/10/26 09:08:40;;;;;;;8.52;5.00;;;13.00;99.90;;;;;;5050524;28;20049;-70
2022/10/26 09:11:32;;;;;;;10.43;4.80;;;13.10;99.90;;;;;;5049149;28;20056;-70
2022/10/26 09:14:19;;;;;;;10.68;4.82;;;13.20;99.90;;;;;;5048957;28;20116;-70
2022/10/26 09:17:07;;;;;;;11.48;4.82;;;13.20;99.90;;;;;;5050369;28;20440;-70
2022/10/26 09:19:48;;;;;;;9.15;4.65;;;13.30;99.90;;;;;;5050616;28;20033;-71
2022/10/26 09:22:35;;;;;;;8.85;4.30;;;13.40;99.90;;;;;;5050444;28;20036;-70
2022/10/26 09:25:22;;;;;;;8.63;4.40;;;13.50;99.90;;;;;;5048851;28;20048;-70
2022/10/26 09:27:57;;;;;;;7.85;4.63;;;13.70;99.90;;;;;;5050245;28;20112;-70
2022/10/26 09:30:22;;;;;;;9.77;4.60;;;13.70;99.90;;;;;;5050528;28;20044;-70
2022/10/26 09:32:55;;;;;;;14.02;4.85;;;13.80;99.90;;;;;;5049205;28;20045;-70
2022/10/26 09:35:24;;;;;;;8.30;3.97;;;13.80;99.90;;;;;;5049723;28;20475;-70
2022/10/26 09:38:13;;;;;;;9.60;3.53;;;13.90;99.90;;;;;;5049090;28;20437;-70
2022/10/26 09:40:53;;;;;;;9.25;3.70;;;13.90;99.90;;;;;;5051028;28;20045;-70
2022/10/26 09:43:28;;;;;;;5.47;3.40;;;14.10;99.90;;;;;;5053889;28;20453;-70
2022/10/26 09:45:54;;;;;;;8.00;3.65;;;14.10;99.90;;;;;;5052501;28;20040;-70
2022/10/26 09:48:42;;;;;;;5.78;4.00;;;14.20;99.90;;;;;;5053743;28;20044;-70
2022/10/26 09:51:10;;;;;;;6.60;3.00;;;14.30;99.90;;;;;;5054241;28;20049;-70
2022/10/26 09:53:35;;;;;;;8.93;3.47;;;14.30;99.90;;;;;;5054024;28;20502;-70
2022/10/26 09:56:09;;;;;;;8.10;2.92;;;14.50;99.90;;;;;;5053841;28;20079;-70
2022/10/26 09:58:49;;;;;;;4.90;3.17;;;14.80;99.90;;;;;;5052420;28;20119;-70
2022/10/26 10:01:35;;;;;;;9.20;2.72;;;14.90;99.90;;;;;;5052394;28;20071;-70
2022/10/26 10:04:16;;;;;;;6.10;2.63;;;14.90;99.90;;;;;;5051967;28;20517;-70
2022/10/26 10:06:50;;;;;;;9.75;2.50;;;15.00;99.90;;;;;;5052497;28;20464;-70
2022/10/26 10:09:20;;;;;;;9.63;2.78;;;15.20;99.90;;;;;;5053836;28;20033;-70
2022/10/26 10:11:56;;;;;;;4.63;2.35;;;15.20;99.90;;;;;;5052262;28;20041;-70
2022/10/26 10:14:37;;;;;;;4.13;2.45;;;15.30;99.90;;;;;;5053254;28;20047;-70
2022/10/26 10:17:07;;;;;;;3.72;2.50;;;15.40;99.90;;;;;;5053372;28;20087;-70
2022/10/26 10:19:35;;;;;;;2.70;2.10;;;15.50;99.90;;;;;;5053189;28;20489;-70
2022/10/26 10:22:18;;;;;;;7.78;2.70;;;15.60;99.90;;;;;;5052344;28;20037;-70
2022/10/26 10:24:55;;;;;;;6.32;2.60;;;15.50;99.90;;;;;;5051646;28;20049;-70
2022/10/26 10:27:22;;;;;;;12.10;3.63;;;15.60;99.90;;;;;;5051759;28;20069;-70
2022/10/26 10:29:50;;;;;;;3.53;2.53;;;15.70;99.90;;;;;;5053243;28;20041;-70
2022/10/26 10:32:22;;;;;;;6.85;2.65;;;15.70;99.90;;;;;;5052112;28;20049;-70
2022/10/26 10:34:49;;;;;;;8.60;2.63;;;15.70;99.90;;;;;;5052934;28;20040;-70
2022/10/26 10:37:38;;;;;;;8.27;2.83;;;15.80;99.90;;;;;;5053283;28;20033;-70
2022/10/26 10:40:23;;;;;;;8.32;2.70;;;15.80;99.90;;;;;;5053338;28;20083;-70
2022/10/26 10:42:51;;;;;;;4.18;2.28;;;15.90;99.90;;;;;;5052871;28;20521;-70
2022/10/26 10:45:23;;;;;;;6.28;2.50;;;16.00;99.90;;;;;;5051507;28;20033;-70
2022/10/26 10:48:01;;;;;;;5.25;2.28;;;16.00;99.90;;;;;;5052766;28;20513;-70
2022/10/26 10:50:29;;;;;;;4.40;2.38;;;16.00;99.90;;;;;;5052866;28;20040;-70
2022/10/26 10:53:23;;;;;;;6.13;2.65;;;16.00;99.90;;;;;;5051687;28;20040;-70
2022/10/26 10:56:13;;;;;;;5.43;3.03;;;16.00;99.90;;;;;;5051229;28;20126;-70
2022/10/26 10:58:39;;;;;;;4.05;2.45;;;16.10;99.90;;;;;;5051181;28;20497;-70
2022/10/26 11:01:13;;;;;;;3.70;2.47;;;16.00;99.90;;;;;;5051371;28;20041;-70
2022/10/26 11:03:55;;;;;;;7.10;2.90;;;16.00;99.90;;;;;;5051253;28;20053;-70
2022/10/26 11:06:22;;;;;;;;;;;16.10;99.90;;;;;;5053108;28;20048;-70
2022/10/26 11:08:54;;;;;;;8.07;2.53;;;16.10;99.90;;;;;;5052437;28;19921;-70
2022/10/26 11:11:28;;;;;;;4.38;2.58;;;16.20;99.90;;;;;;5052501;28;20044;-70
2022/10/26 11:14:10;;;;;;;4.65;2.42;;;16.20;99.90;;;;;;5052298;28;20051;-70
2022/10/26 11:16:41;;;;;;;4.32;2.30;;;16.30;99.90;;;;;;5052439;28;20055;-70
2022/10/26 11:19:50;;;;;;;8.23;2.58;;;16.40;99.90;;;;;;5052294;28;20383;-70
2022/10/26 11:22:30;;;;;;;4.05;2.40;;;16.30;99.90;;;;;;5048511;28;20057;-70
2022/10/26 11:25:05;;;;;;;8.43;2.78;;;16.30;99.90;;;;;;5052177;28;20124;-70
2022/10/26 11:27:44;;;;;;;7.55;2.72;;;16.40;99.90;;;;;;5052241;28;20048;-70
2022/10/26 11:30:26;;;;;;;9.00;2.90;;;16.40;99.90;;;;;;5052127;28;20037;-70
2022/10/26 11:33:10;;;;;;;6.30;3.00;;;16.50;99.90;;;;;;5052380;28;20041;-70
2022/10/26 11:35:45;;;;;;;7.82;2.78;;;16.40;99.90;;;;;;5051474;28;20047;-70
2022/10/26 11:38:32;;;;;;;5.47;2.70;;;16.50;99.90;;;;;;5052042;28;20155;-70
2022/10/26 11:41:16;;;;;;;7.45;2.75;;;16.50;99.90;;;;;;5052088;28;20045;-70
2022/10/26 11:43:47;;;;;;;5.85;2.22;;;16.60;99.90;;;;;;5050169;28;20083;-70
2022/10/26 11:46:17;;;;;;;4.22;2.50;;;16.60;99.90;;;;;;5050613;28;20492;-70
2022/10/26 11:48:53;;;;;;;3.85;2.50;;;16.60;99.90;;;;;;5050516;28;20469;-70
2022/10/26 11:51:30;;;;;;;7.18;2.40;;;16.70;99.90;;;;;;5050428;28;20055;-70
2022/10/26 11:54:03;;;;;;;5.03;2.88;;;16.70;99.90;;;;;;5051307;28;20099;-70
2022/10/26 11:56:34;;;;;;;3.72;2.42;;;16.70;99.90;;;;;;5050247;28;20098;-70
2022/10/26 11:59:00;;;;;;;9.85;2.80;;;16.70;99.90;;;;;;5051563;28;20412;-70
2022/10/26 12:01:28;;;;;;;5.47;2.65;;;16.70;99.90;;;;;;5051472;28;20128;-70
2022/10/26 12:03:58;;;;;;;8.50;2.63;;;16.70;99.90;;;;;;5049327;28;20096;-70
2022/10/26 12:06:31;;;;;;;4.55;2.30;;;16.80;99.90;;;;;;5050417;28;20053;-70
2022/10/26 12:09:20;;;;;;;3.33;2.42;;;16.90;99.90;;;;;;5050264;28;20072;-70
2022/10/26 12:11:49;;;;;;;4.38;2.70;;;17.00;99.90;;;;;;5051128;28;20049;-70
2022/10/26 12:14:19;;;;;;;7.93;2.88;;;17.00;99.90;;;;;;5049899;28;20040;-70
2022/10/26 12:17:10;;;;;;;5.88;2.90;;;17.10;99.90;;;;;;5050150;28;20045;-70
2022/10/26 12:19:54;;;;;;;5.07;2.42;;;17.10;99.90;;;;;;5051138;28;20040;-70
2022/10/26 12:22:25;;;;;;;6.30;2.75;;;17.10;99.90;;;;;;5051530;28;20087;-70
2022/10/26 12:25:12;;;;;;;6.63;2.85;;;17.10;99.90;;;;;;5051089;28;20040;-70
2022/10/26 12:27:38;;;;;;;4.72;2.55;;;17.10;99.90;;;;;;5051040;28;20504;-70
2022/10/26 12:30:18;;;;;;;9.75;2.80;;;17.10;99.90;;;;;;5050904;28;20110;-70
2022/10/26 12:32:43;;;;;;;7.07;2.90;;;17.10;99.90;;;;;;5051352;28;20119;-70
2022/10/26 12:35:29;;;;;;;6.57;2.53;;;17.20;99.90;;;;;;5050438;28;20529;-70
2022/10/26 12:37:55;;;;;;;10.85;2.28;;;17.20;99.90;;;;;;5049574;28;20075;-70
2022/10/26 12:40:30;;;;;;;8.23;2.63;;;17.20;99.90;;;;;;5050831;28;20119;-70
2022/10/26 12:42:56;;;;;;;6.85;2.88;;;17.20;99.90;;;;;;5032858;28;20049;-70
2022/10/26 12:45:23;;;;;;;3.67;2.63;;;17.30;99.90;;;;;;5050434;28;20036;-70
2022/10/26 12:47:49;;;;;;;7.95;2.30;;;17.30;99.90;;;;;;5049431;28;20041;-70
2022/10/26 12:50:14;;;;;;;4.72;2.13;;;17.30;99.90;;;;;;5049595;28;20045;-70
2022/10/26 12:52:58;;;;;;;7.53;2.65;;;17.30;99.90;;;;;;5049700;28;20048;-70
2022/10/26 12:55:42;;;;;;;5.32;2.70;;;17.30;99.90;;;;;;5049437;28;20495;-70
2022/10/26 12:58:49;;;;;;;5.95;2.65;;;17.30;99.90;;;;;;5049380;28;20116;-70
2022/10/26 13:01:34;;;;;;;6.40;2.80;;;17.30;99.90;;;;;;5050938;28;20033;-70
2022/10/26 13:04:16;;;;;;;7.72;2.65;;;17.30;99.90;;;;;;5049037;28;20056;-70
2022/10/26 13:06:46;;;;;;;5.05;2.35;;;17.20;99.90;;;;;;5049272;28;20140;-70